Time;durP1;ratioP1;P1;durP2;ratioP2;P2;SDS_P1;SDS_P2;PMS_P1;PMS_P2;Temp;Humidity;BMP_temperature;BMP_pressure;BME280_temperature;BME280_humidity;BME280_pressure;Samples;Min_cycle;Max_cycle;Signal;HPM_P1;HPM_P2
2021/05/05 00:01:54;;;;;;;1.20;0.98;;;;;;;;;;5036530;28;20025;-76
2021/05/05 00:04:19;;;;;;;0.93;0.93;;;;;;;;;;5007158;28;20028;-77
2021/05/05 00:06:45;;;;;;;0.93;0.93;;;;;;;;;;5007537;28;20048;-77
2021/05/05 00:09:10;;;;;;;1.40;1.30;;;;;;;;;;5006137;28;20308;-77
2021/05/05 00:11:36;;;;;;;1.55;1.13;;;;;;;;;;5038347;28;20044;-77
2021/05/05 00:14:01;;;;;;;1.83;1.15;;;;;;;;;;5038875;28;20022;-77
2021/05/05 00:16:26;;;;;;;0.90;0.90;;;;;;;;;;5006592;28;20029;-77
2021/05/05 00:18:52;;;;;;;1.40;1.10;;;;;;;;;;5008864;28;20030;-77
2021/05/05 00:21:19;;;;;;;1.15;1.10;;;;;;;;;;5041830;28;20392;-77
2021/05/05 00:23:45;;;;;;;1.77;1.08;;;;;;;;;;5040653;28;20444;-77
2021/05/05 00:26:12;;;;;;;1.00;1.00;;;;;;;;;;5040755;28;20022;-77
2021/05/05 00:28:37;;;;;;;;;;;;;;;;;;5037080;28;20022;-77
2021/05/05 00:31:03;;;;;;;3.55;1.13;;;;;;;;;;5008719;28;19955;-77
2021/05/05 00:33:28;;;;;;;1.85;1.10;;;;;;;;;;5041097;28;20021;-77
2021/05/05 00:35:53;;;;;;;1.02;1.00;;;;;;;;;;5007713;28;20034;-76
2021/05/05 00:38:19;;;;;;;1.15;1.10;;;;;;;;;;5006826;28;20096;-77
2021/05/05 00:40:47;;;;;;;1.20;1.10;;;;;;;;;;5007430;28;20057;-77
2021/05/05 00:43:12;;;;;;;1.10;1.10;;;;;;;;;;5009303;28;20648;-77
2021/05/05 00:45:37;;;;;;;3.75;1.25;;;;;;;;;;5006605;28;20556;-77
2021/05/05 00:48:03;;;;;;;0.90;0.90;;;;;;;;;;5041979;28;20421;-77
2021/05/05 00:50:28;;;;;;;1.13;1.00;;;;;;;;;;5040661;28;20334;-77
2021/05/05 00:52:53;;;;;;;1.42;1.00;;;;;;;;;;5008008;28;20030;-77
2021/05/05 00:55:19;;;;;;;1.00;1.00;;;;;;;;;;5039561;28;20040;-77
2021/05/05 00:57:44;;;;;;;2.15;1.00;;;;;;;;;;5007054;28;20105;-77
2021/05/05 01:00:10;;;;;;;1.90;1.25;;;;;;;;;;5035942;28;20053;-76
2021/05/05 01:02:38;;;;;;;1.30;1.13;;;;;;;;;;5008803;28;20024;-76
2021/05/05 01:05:05;;;;;;;0.90;0.90;;;;;;;;;;5039904;28;20026;-76
2021/05/05 01:07:30;;;;;;;0.90;0.90;;;;;;;;;;5040811;28;20113;-76
2021/05/05 01:09:55;;;;;;;2.33;1.15;;;;;;;;;;5008194;28;20105;-77
2021/05/05 01:12:23;;;;;;;1.35;1.00;;;;;;;;;;5039993;28;20041;-76
2021/05/05 01:14:49;;;;;;;;;;;;;;;;;;5008540;28;20026;-76
2021/05/05 01:17:14;;;;;;;1.55;1.20;;;;;;;;;;5008019;28;19917;-77
2021/05/05 01:19:40;;;;;;;1.23;1.10;;;;;;;;;;5008913;28;20029;-77
2021/05/05 01:22:07;;;;;;;1.98;1.15;;;;;;;;;;5008438;28;20112;-76
2021/05/05 01:24:35;;;;;;;1.42;1.10;;;;;;;;;;5040842;28;20026;-77
2021/05/05 01:27:04;;;;;;;2.65;1.20;;;;;;;;;;5008952;28;20104;-76
2021/05/05 01:29:32;;;;;;;2.45;1.08;;;;;;;;;;5040376;28;20492;-76
2021/05/05 01:31:57;;;;;;;0.90;0.90;;;;;;;;;;4998992;28;20030;-77
2021/05/05 01:34:22;;;;;;;2.25;1.00;;;;;;;;;;4989139;28;20432;-77
2021/05/05 01:36:48;;;;;;;1.23;1.00;;;;;;;;;;4996232;28;20057;-77
2021/05/05 01:39:14;;;;;;;2.15;1.20;;;;;;;;;;5038690;28;20038;-77
2021/05/05 01:41:42;;;;;;;1.73;1.17;;;;;;;;;;4994656;28;20026;-77
2021/05/05 01:44:08;;;;;;;1.17;1.15;;;;;;;;;;5040219;28;20088;-77
2021/05/05 01:46:34;;;;;;;1.27;1.00;;;;;;;;;;5007419;28;20060;-77
2021/05/05 01:48:59;;;;;;;1.88;1.17;;;;;;;;;;5041176;28;20460;-77
2021/05/05 01:51:24;;;;;;;3.33;1.10;;;;;;;;;;5032858;28;20077;-77
2021/05/05 01:53:50;;;;;;;1.00;0.95;;;;;;;;;;4988263;28;20057;-77
2021/05/05 01:56:15;;;;;;;3.42;1.20;;;;;;;;;;4991288;28;20037;-77
2021/05/05 01:58:40;;;;;;;1.15;1.10;;;;;;;;;;5015245;28;20053;-77
2021/05/05 02:01:07;;;;;;;1.95;1.17;;;;;;;;;;5005744;28;20052;-77
2021/05/05 02:03:32;;;;;;;3.35;1.75;;;;;;;;;;5006115;28;20488;-77
2021/05/05 02:05:58;;;;;;;1.30;1.20;;;;;;;;;;4989817;28;20041;-76
2021/05/05 02:08:23;;;;;;;0.93;0.93;;;;;;;;;;4991116;28;20392;-78
2021/05/05 02:10:48;;;;;;;1.25;1.00;;;;;;;;;;5040933;28;20034;-77
2021/05/05 02:13:14;;;;;;;1.30;1.17;;;;;;;;;;5008922;28;20391;-78
2021/05/05 02:15:39;;;;;;;2.40;1.40;;;;;;;;;;5037548;28;20121;-78
2021/05/05 02:18:06;;;;;;;1.48;1.10;;;;;;;;;;4988769;28;20429;-77
2021/05/05 02:20:32;;;;;;;1.10;1.10;;;;;;;;;;5004879;28;20022;-77
2021/05/05 02:22:57;;;;;;;1.45;1.10;;;;;;;;;;5008910;28;20500;-77
2021/05/05 02:25:23;;;;;;;0.93;0.93;;;;;;;;;;5009070;28;20014;-77
2021/05/05 02:27:50;;;;;;;1.13;1.08;;;;;;;;;;5007645;28;20031;-78
2021/05/05 02:30:15;;;;;;;3.42;1.20;;;;;;;;;;4993399;28;20088;-77
2021/05/05 02:32:44;;;;;;;1.05;0.95;;;;;;;;;;5005037;28;20029;-77
2021/05/05 02:35:12;;;;;;;1.33;1.05;;;;;;;;;;5013033;28;20026;-77
2021/05/05 02:37:38;;;;;;;1.20;1.10;;;;;;;;;;5043537;28;20079;-78
2021/05/05 02:40:07;;;;;;;2.70;1.20;;;;;;;;;;5010840;28;20030;-77
2021/05/05 02:42:32;;;;;;;1.17;1.08;;;;;;;;;;5011801;28;20468;-77
2021/05/05 02:44:58;;;;;;;3.45;1.00;;;;;;;;;;5011659;28;20018;-78
2021/05/05 02:47:23;;;;;;;1.55;1.00;;;;;;;;;;5012402;28;20014;-77
2021/05/05 02:49:51;;;;;;;1.48;1.10;;;;;;;;;;5010260;28;20529;-78
2021/05/05 02:52:18;;;;;;;2.42;1.27;;;;;;;;;;4993220;28;20029;-77
2021/05/05 02:54:44;;;;;;;1.52;1.30;;;;;;;;;;5024884;28;20038;-78
2021/05/05 02:57:09;;;;;;;1.50;1.10;;;;;;;;;;5043160;28;20092;-78
2021/05/05 02:59:35;;;;;;;1.30;1.20;;;;;;;;;;4997598;28;20109;-76
2021/05/05 03:02:05;;;;;;;2.05;1.13;;;;;;;;;;4993399;28;20014;-77
2021/05/05 03:04:30;;;;;;;2.05;1.13;;;;;;;;;;5002198;28;20028;-78
2021/05/05 03:06:55;;;;;;;1.10;1.00;;;;;;;;;;5013003;28;20033;-78
2021/05/05 03:09:22;;;;;;;1.70;1.08;;;;;;;;;;5012688;28;20022;-77
2021/05/05 03:11:47;;;;;;;1.35;1.08;;;;;;;;;;5012575;28;20010;-77
2021/05/05 03:14:12;;;;;;;1.30;1.20;;;;;;;;;;5012576;28;20025;-77
2021/05/05 03:16:38;;;;;;;1.13;1.00;;;;;;;;;;5044300;28;20018;-77
2021/05/05 03:19:04;;;;;;;1.38;1.10;;;;;;;;;;5011094;28;20072;-77
2021/05/05 03:21:31;;;;;;;1.67;1.10;;;;;;;;;;5011648;28;20026;-79
2021/05/05 03:23:56;;;;;;;;;;;;;;;;;;5012074;28;20025;-77
2021/05/05 03:26:21;;;;;;;1.00;1.00;;;;;;;;;;5001112;28;19905;-77
2021/05/05 03:28:47;;;;;;;1.48;1.00;;;;;;;;;;5004384;28;20025;-77
2021/05/05 03:31:12;;;;;;;2.13;1.23;;;;;;;;;;5011517;28;20053;-77
2021/05/05 03:33:37;;;;;;;3.10;1.20;;;;;;;;;;5003599;28;20044;-77
2021/05/05 03:36:03;;;;;;;2.00;1.17;;;;;;;;;;4997648;28;20484;-77
2021/05/05 03:38:28;;;;;;;1.20;1.10;;;;;;;;;;5010363;28;20602;-77
2021/05/05 03:40:54;;;;;;;1.73;1.10;;;;;;;;;;5009926;28;20127;-77
2021/05/05 03:43:19;;;;;;;2.55;1.20;;;;;;;;;;5001381;28;20041;-77
2021/05/05 03:45:47;;;;;;;1.85;1.02;;;;;;;;;;5033177;28;20014;-77
2021/05/05 03:48:12;;;;;;;1.20;1.02;;;;;;;;;;5011967;28;20042;-78
2021/05/05 03:50:38;;;;;;;1.80;1.20;;;;;;;;;;5011174;28;20080;-78
2021/05/05 03:53:03;;;;;;;6.80;2.60;;;;;;;;;;5010640;28;20120;-78
2021/05/05 03:55:29;;;;;;;2.67;1.50;;;;;;;;;;5011933;28;20025;-77
2021/05/05 03:57:54;;;;;;;2.42;1.60;;;;;;;;;;5012073;28;20040;-78
2021/05/05 04:00:19;;;;;;;3.30;1.45;;;;;;;;;;5009389;28;20110;-76
2021/05/05 04:02:45;;;;;;;1.55;1.25;;;;;;;;;;5009992;28;20033;-77
2021/05/05 04:05:10;;;;;;;1.00;1.00;;;;;;;;;;5011657;28;20025;-77
2021/05/05 04:07:36;;;;;;;1.40;1.30;;;;;;;;;;5009919;28;20113;-77
2021/05/05 04:10:01;;;;;;;0.95;0.95;;;;;;;;;;5009288;28;20121;-77
2021/05/05 04:12:28;;;;;;;1.30;1.00;;;;;;;;;;5009401;28;20021;-76
2021/05/05 04:14:54;;;;;;;;;;;;;;;;;;5010385;28;20026;-77
2021/05/05 04:17:19;;;;;;;1.00;1.00;;;;;;;;;;5011955;28;19951;-77
2021/05/05 04:19:44;;;;;;;1.02;1.00;;;;;;;;;;5043959;28;20486;-77
2021/05/05 04:22:10;;;;;;;4.03;1.30;;;;;;;;;;5012172;28;20037;-77
2021/05/05 04:24:35;;;;;;;1.27;1.08;;;;;;;;;;5008666;28;20022;-77
2021/05/05 04:27:00;;;;;;;1.10;1.00;;;;;;;;;;4992801;28;20025;-77
2021/05/05 04:29:28;;;;;;;1.00;1.00;;;;;;;;;;5011307;28;20022;-77
2021/05/05 04:31:53;;;;;;;;;;;;;;;;;;5012562;28;20064;-78
2021/05/05 04:34:19;;;;;;;1.10;1.10;;;;;;;;;;5050440;28;20012;-77
2021/05/05 04:36:45;;;;;;;1.30;1.20;;;;;;;;;;5010118;28;20264;-76
2021/05/05 04:39:10;;;;;;;1.52;1.10;;;;;;;;;;5000896;28;20022;-76
2021/05/05 04:41:38;;;;;;;1.58;1.17;;;;;;;;;;5041529;28;20049;-80
2021/05/05 04:44:03;;;;;;;;;;;;;;;;;;5013302;28;20484;-77
2021/05/05 04:46:28;;;;;;;1.95;1.10;;;;;;;;;;5013822;28;19932;-77
2021/05/05 04:48:53;;;;;;;1.25;1.17;;;;;;;;;;4992926;28;20051;-78
2021/05/05 04:51:19;;;;;;;1.30;1.20;;;;;;;;;;4993959;28;20101;-77
2021/05/05 04:53:44;;;;;;;2.03;1.35;;;;;;;;;;4992395;28;20037;-77
2021/05/05 04:56:09;;;;;;;2.40;1.40;;;;;;;;;;4992853;28;20389;-77
2021/05/05 04:58:37;;;;;;;2.38;1.63;;;;;;;;;;5025744;28;20073;-77
2021/05/05 05:01:02;;;;;;;3.90;1.42;;;;;;;;;;5025491;28;20022;-78
2021/05/05 05:03:28;;;;;;;3.25;1.40;;;;;;;;;;4991377;28;20033;-77
2021/05/05 05:05:53;;;;;;;7.28;1.40;;;;;;;;;;5024002;28;20109;-77
2021/05/05 05:08:18;;;;;;;2.95;1.40;;;;;;;;;;5000472;28;20021;-77
2021/05/05 05:10:43;;;;;;;1.27;1.17;;;;;;;;;;5010202;28;20045;-77
2021/05/05 05:13:09;;;;;;;1.38;1.08;;;;;;;;;;5009123;28;20264;-77
2021/05/05 05:15:35;;;;;;;2.75;1.30;;;;;;;;;;5019379;28;20025;-77
2021/05/05 05:18:03;;;;;;;1.15;1.08;;;;;;;;;;5009057;28;20032;-78
2021/05/05 05:20:28;;;;;;;;;;;;;;;;;;5009986;28;20104;-77
2021/05/05 05:22:55;;;;;;;1.30;1.20;;;;;;;;;;5008771;28;20059;-77
2021/05/05 05:25:20;;;;;;;1.27;1.20;;;;;;;;;;5009684;28;20018;-77
2021/05/05 05:27:45;;;;;;;2.20;1.45;;;;;;;;;;5009170;28;20025;-77
2021/05/05 05:30:11;;;;;;;3.00;1.60;;;;;;;;;;5009455;28;20036;-77
2021/05/05 05:32:36;;;;;;;2.28;1.20;;;;;;;;;;5010865;28;20034;-78
2021/05/05 05:35:05;;;;;;;2.13;1.30;;;;;;;;;;5011604;28;20504;-78
2021/05/05 05:37:31;;;;;;;3.72;1.52;;;;;;;;;;5010598;28;20029;-78
2021/05/05 05:39:56;;;;;;;3.60;1.65;;;;;;;;;;5012419;28;20032;-78
2021/05/05 05:42:21;;;;;;;1.58;1.30;;;;;;;;;;5011314;28;20014;-78
2021/05/05 05:44:46;;;;;;;1.23;1.20;;;;;;;;;;5011046;28;20450;-78
2021/05/05 05:47:12;;;;;;;1.67;1.23;;;;;;;;;;5011196;28;20102;-78
2021/05/05 05:49:37;;;;;;;1.52;1.10;;;;;;;;;;5009626;28;20037;-79
2021/05/05 05:52:05;;;;;;;1.00;1.00;;;;;;;;;;5008826;28;20030;-78
2021/05/05 05:54:30;;;;;;;;;;;;;;;;;;5010336;28;20022;-78
2021/05/05 05:56:57;;;;;;;1.10;1.00;;;;;;;;;;5010255;28;19913;-78
2021/05/05 05:59:22;;;;;;;;;;;;;;;;;;5010935;28;20018;-78
2021/05/05 06:01:48;;;;;;;0.82;0.82;;;;;;;;;;5013743;28;19940;-78
2021/05/05 06:04:15;;;;;;;1.25;1.10;;;;;;;;;;5014074;28;20037;-78
2021/05/05 06:06:40;;;;;;;1.30;1.20;;;;;;;;;;5018038;28;20026;-77
2021/05/05 06:09:06;;;;;;;1.70;1.20;;;;;;;;;;5016240;28;20029;-78
2021/05/05 06:11:31;;;;;;;1.15;1.10;;;;;;;;;;5014007;28;20104;-77
2021/05/05 06:13:56;;;;;;;1.38;1.10;;;;;;;;;;5014892;28;20072;-78
2021/05/05 06:16:21;;;;;;;1.08;1.00;;;;;;;;;;5013603;28;20026;-78
2021/05/05 06:18:47;;;;;;;1.00;1.00;;;;;;;;;;5008597;28;20030;-78
2021/05/05 06:21:12;;;;;;;1.05;1.00;;;;;;;;;;5006018;28;20033;-71
2021/05/05 06:23:37;;;;;;;1.23;1.13;;;;;;;;;;5003071;28;20018;-71
2021/05/05 06:26:02;;;;;;;1.15;1.05;;;;;;;;;;5006937;28;20179;-71
2021/05/05 06:28:28;;;;;;;1.20;1.10;;;;;;;;;;5030728;28;20018;-73
2021/05/05 06:30:58;;;;;;;1.48;1.38;;;;;;;;;;5027970;28;20776;-69
2021/05/05 06:33:23;;;;;;;1.30;1.20;;;;;;;;;;5010038;28;20442;-78
2021/05/05 06:35:49;;;;;;;3.53;1.73;;;;;;;;;;5023318;28;20100;-77
2021/05/05 06:38:14;;;;;;;2.95;1.45;;;;;;;;;;5022294;28;20025;-77
2021/05/05 06:40:39;;;;;;;0.88;0.88;;;;;;;;;;5007715;28;20026;-77
2021/05/05 06:43:04;;;;;;;0.93;0.93;;;;;;;;;;5004395;28;20053;-76
2021/05/05 06:45:30;;;;;;;1.30;1.17;;;;;;;;;;5003643;28;20085;-77
2021/05/05 06:47:55;;;;;;;1.45;1.35;;;;;;;;;;5001685;28;20037;-77
2021/05/05 06:50:23;;;;;;;2.35;1.35;;;;;;;;;;5011230;28;20034;-77
2021/05/05 06:52:48;;;;;;;2.15;1.30;;;;;;;;;;5013325;28;20022;-77
2021/05/05 06:55:14;;;;;;;3.28;1.10;;;;;;;;;;5009417;28;20056;-77
2021/05/05 06:57:40;;;;;;;1.42;1.20;;;;;;;;;;5009047;28;20558;-76
2021/05/05 07:00:08;;;;;;;1.85;1.20;;;;;;;;;;5009378;28;20503;-76
2021/05/05 07:02:34;;;;;;;1.30;1.20;;;;;;;;;;5009778;28;20060;-76
2021/05/05 07:04:59;;;;;;;4.70;1.65;;;;;;;;;;5010648;28;20026;-76
2021/05/05 07:07:25;;;;;;;3.22;1.40;;;;;;;;;;5009825;28;20395;-76
2021/05/05 07:09:52;;;;;;;2.35;1.40;;;;;;;;;;5010744;28;20372;-77
2021/05/05 07:12:17;;;;;;;;;;;;;;;;;;5009864;28;20506;-76
2021/05/05 07:14:43;;;;;;;1.73;1.13;;;;;;;;;;5010190;28;19905;-76
2021/05/05 07:17:10;;;;;;;3.65;1.30;;;;;;;;;;5007810;28;20507;-76
2021/05/05 07:19:35;;;;;;;;;;;;;;;;;;5041945;28;20064;-76
2021/05/05 07:22:01;;;;;;;1.77;1.30;;;;;;;;;;5017939;28;19972;-76
2021/05/05 07:24:26;;;;;;;2.60;1.50;;;;;;;;;;5003971;28;20014;-76
2021/05/05 07:26:51;;;;;;;2.83;1.50;;;;;;;;;;5007607;28;20026;-74
2021/05/05 07:29:17;;;;;;;1.55;1.08;;;;;;;;;;5008518;28;20029;-75
2021/05/05 07:31:42;;;;;;;2.42;1.52;;;;;;;;;;5041021;28;20029;-76
2021/05/05 07:34:09;;;;;;;3.90;1.40;;;;;;;;;;5009103;28;20053;-76
2021/05/05 07:36:34;;;;;;;3.25;1.48;;;;;;;;;;5041491;28;20041;-76
2021/05/05 07:47:00;;;;;;;2.00;1.20;;;;;;;;;;5014706;28;20021;-78
2021/05/05 07:49:26;;;;;;;2.05;1.40;;;;;;;;;;5014324;28;20080;-78
2021/05/05 07:51:52;;;;;;;2.83;1.50;;;;;;;;;;5012809;28;20029;-78
2021/05/05 07:54:19;;;;;;;1.48;1.17;;;;;;;;;;5006936;28;20031;-78
2021/05/05 07:56:44;;;;;;;3.92;1.40;;;;;;;;;;5000074;28;20786;-78
2021/05/05 07:59:11;;;;;;;2.15;1.30;;;;;;;;;;5013532;28;20050;-77
2021/05/05 08:01:37;;;;;;;2.27;1.50;;;;;;;;;;5006350;28;20045;-79
2021/05/05 08:04:03;;;;;;;3.22;1.65;;;;;;;;;;5046516;28;20065;-77
2021/05/05 08:06:28;;;;;;;1.77;1.40;;;;;;;;;;5011206;28;20025;-77
2021/05/05 08:08:54;;;;;;;1.45;1.20;;;;;;;;;;5011963;28;20028;-76
2021/05/05 08:11:20;;;;;;;1.00;1.00;;;;;;;;;;5013577;28;20132;-77
2021/05/05 08:13:47;;;;;;;1.98;1.30;;;;;;;;;;5014651;28;20089;-77
2021/05/05 08:16:12;;;;;;;;;;;;;;;;;;5014718;28;20085;-78
2021/05/05 08:18:38;;;;;;;1.05;0.98;;;;;;;;;;5044079;28;19913;-77
2021/05/05 08:21:05;;;;;;;1.35;1.23;;;;;;;;;;5014567;28;20030;-75
2021/05/05 08:23:30;;;;;;;1.27;1.08;;;;;;;;;;5011439;28;20052;-77
2021/05/05 08:25:55;;;;;;;2.92;1.30;;;;;;;;;;5011725;28;20654;-77
2021/05/05 08:28:23;;;;;;;1.80;1.30;;;;;;;;;;5043412;28;20026;-78
2021/05/05 08:30:49;;;;;;;2.45;1.40;;;;;;;;;;5013596;28;20026;-78
2021/05/05 08:33:14;;;;;;;1.38;1.15;;;;;;;;;;5011723;28;20026;-77
2021/05/05 08:35:40;;;;;;;1.88;1.23;;;;;;;;;;5010685;28;20025;-78
2021/05/05 08:38:05;;;;;;;1.65;1.27;;;;;;;;;;5010615;28;20030;-77
2021/05/05 08:40:32;;;;;;;2.35;1.23;;;;;;;;;;5010474;28;20121;-78
2021/05/05 08:42:57;;;;;;;3.33;1.37;;;;;;;;;;5009343;28;20054;-78
2021/05/05 08:45:23;;;;;;;2.15;1.00;;;;;;;;;;5010002;28;20123;-78
2021/05/05 08:47:51;;;;;;;2.10;1.10;;;;;;;;;;5010635;28;20103;-77
2021/05/05 08:50:23;;;;;;;1.17;1.08;;;;;;;;;;5012324;28;20034;-78
2021/05/05 08:52:48;;;;;;;1.70;1.20;;;;;;;;;;5010556;28;20454;-77
2021/05/05 08:55:16;;;;;;;1.60;1.08;;;;;;;;;;5009421;28;20117;-75
2021/05/05 08:57:41;;;;;;;1.73;1.20;;;;;;;;;;5008209;28;20132;-73
2021/05/05 09:00:08;;;;;;;1.88;1.27;;;;;;;;;;5007924;28;20240;-73
2021/05/05 09:02:33;;;;;;;2.15;1.23;;;;;;;;;;5015653;28;20498;-73
2021/05/05 09:05:00;;;;;;;1.27;1.00;;;;;;;;;;5015676;28;20049;-75
2021/05/05 09:07:33;;;;;;;2.80;1.38;;;;;;;;;;5005237;28;20018;-74
2021/05/05 09:10:13;;;;;;;2.88;1.23;;;;;;;;;;5007205;28;20021;-76
2021/05/05 09:12:39;;;;;;;2.08;1.10;;;;;;;;;;5007848;28;20033;-75
2021/05/05 09:15:05;;;;;;;1.83;1.27;;;;;;;;;;5006258;28;20076;-76
2021/05/05 09:17:32;;;;;;;1.42;1.02;;;;;;;;;;5006329;28;20018;-74
2021/05/05 09:20:03;;;;;;;1.83;1.00;;;;;;;;;;5016054;28;20022;-78
2021/05/05 09:22:42;;;;;;;0.82;0.82;;;;;;;;;;5003187;28;20030;-75
2021/05/05 09:25:09;;;;;;;2.25;1.30;;;;;;;;;;5007887;28;20097;-75
2021/05/05 09:27:35;;;;;;;1.35;1.02;;;;;;;;;;5006147;28;20026;-75
2021/05/05 09:30:01;;;;;;;2.88;1.35;;;;;;;;;;5006751;28;20032;-76
2021/05/05 09:32:27;;;;;;;1.88;1.23;;;;;;;;;;5004914;28;20030;-76
2021/05/05 09:35:04;;;;;;;3.55;1.42;;;;;;;;;;5006871;28;20104;-76
2021/05/05 09:37:30;;;;;;;2.67;1.40;;;;;;;;;;5005073;28;20392;-76
2021/05/05 09:39:58;;;;;;;1.58;1.17;;;;;;;;;;5007274;28;20514;-75
2021/05/05 09:42:25;;;;;;;2.72;1.30;;;;;;;;;;5005926;28;20105;-75
2021/05/05 09:44:53;;;;;;;2.30;1.33;;;;;;;;;;5008531;28;20030;-75
2021/05/05 09:47:18;;;;;;;2.35;1.30;;;;;;;;;;5007190;28;20045;-76
2021/05/05 09:49:44;;;;;;;1.10;1.00;;;;;;;;;;5007251;28;20345;-76
2021/05/05 09:52:19;;;;;;;1.17;0.90;;;;;;;;;;5007032;28;20018;-76
2021/05/05 09:54:59;;;;;;;1.10;1.02;;;;;;;;;;5006152;28;20026;-76
2021/05/05 09:57:26;;;;;;;2.17;1.10;;;;;;;;;;5007995;28;20044;-76
2021/05/05 09:59:54;;;;;;;1.58;1.00;;;;;;;;;;5010081;28;20037;-76
2021/05/05 10:02:22;;;;;;;2.75;1.40;;;;;;;;;;4996343;28;20030;-75
2021/05/05 10:04:56;;;;;;;2.30;1.20;;;;;;;;;;5001629;28;20029;-75
2021/05/05 10:07:24;;;;;;;2.13;1.30;;;;;;;;;;5005296;28;20022;-76
2021/05/05 10:09:49;;;;;;;3.40;1.50;;;;;;;;;;5003651;28;20524;-76
2021/05/05 10:12:15;;;;;;;4.53;1.30;;;;;;;;;;5038190;28;20029;-76
2021/05/05 10:14:43;;;;;;;1.48;1.00;;;;;;;;;;5005385;28;20014;-75
2021/05/05 10:17:08;;;;;;;;;;;;;;;;;;5006086;28;20026;-76
2021/05/05 10:19:35;;;;;;;2.58;1.30;;;;;;;;;;5002681;28;19920;-76
2021/05/05 10:22:02;;;;;;;3.15;1.10;;;;;;;;;;4999462;28;20538;-75
2021/05/05 10:24:30;;;;;;;2.65;1.25;;;;;;;;;;4998015;28;20029;-74
2021/05/05 10:26:56;;;;;;;;;;;;;;;;;;4997432;28;20154;-74
2021/05/05 10:29:22;;;;;;;2.80;1.10;;;;;;;;;;5002084;28;20000;-75
2021/05/05 10:31:49;;;;;;;1.13;1.02;;;;;;;;;;4996892;28;20133;-75
2021/05/05 10:34:20;;;;;;;2.30;1.23;;;;;;;;;;4999517;28;20380;-75
2021/05/05 10:36:51;;;;;;;3.08;1.38;;;;;;;;;;5005650;28;20396;-75
2021/05/05 10:39:16;;;;;;;1.33;1.23;;;;;;;;;;5005429;28;20033;-74
2021/05/05 10:41:41;;;;;;;2.10;1.20;;;;;;;;;;5006980;28;20022;-75
2021/05/05 10:44:06;;;;;;;2.08;1.00;;;;;;;;;;5002848;28;20255;-72
2021/05/05 10:46:38;;;;;;;1.25;1.08;;;;;;;;;;5000491;28;20030;-73
2021/05/05 10:49:11;;;;;;;1.33;1.00;;;;;;;;;;5009666;28;20018;-75
2021/05/05 10:51:46;;;;;;;2.90;1.20;;;;;;;;;;5041385;28;20026;-75
2021/05/05 10:54:37;;;;;;;1.50;1.20;;;;;;;;;;5007916;28;20859;-74
2021/05/05 10:57:12;;;;;;;1.23;1.13;;;;;;;;;;5009390;28;20029;-74
2021/05/05 11:00:05;;;;;;;1.40;0.90;;;;;;;;;;5005669;28;20403;-73
2021/05/05 11:02:49;;;;;;;1.10;0.90;;;;;;;;;;4992664;28;20038;-76
2021/05/05 11:05:31;;;;;;;0.80;0.80;;;;;;;;;;4990486;28;20417;-77
2021/05/05 11:07:57;;;;;;;1.88;1.02;;;;;;;;;;5010316;28;20041;-76
2021/05/05 11:10:35;;;;;;;1.20;1.10;;;;;;;;;;5009209;28;20026;-76
2021/05/05 11:13:05;;;;;;;1.00;1.00;;;;;;;;;;5006517;28;20739;-76
2021/05/05 11:15:43;;;;;;;1.00;1.00;;;;;;;;;;5012884;28;20347;-77
2021/05/05 11:18:39;;;;;;;1.23;1.10;;;;;;;;;;5006859;28;20026;-77
2021/05/05 11:21:05;;;;;;;1.20;1.10;;;;;;;;;;5010505;28;20026;-77
2021/05/05 11:23:38;;;;;;;1.23;1.13;;;;;;;;;;5008511;28;20026;-76
2021/05/05 11:26:16;;;;;;;1.60;1.40;;;;;;;;;;5009972;28;20492;-77
2021/05/05 11:28:41;;;;;;;;;;;;;;;;;;5009147;28;20021;-75
2021/05/05 11:31:06;;;;;;;1.30;1.20;;;;;;;;;;5008977;28;19906;-74
2021/05/05 11:33:51;;;;;;;1.58;1.25;;;;;;;;;;5007483;28;20057;-75
2021/05/05 11:36:17;;;;;;;1.10;1.10;;;;;;;;;;5010075;28;20117;-77
2021/05/05 11:38:45;;;;;;;2.05;1.50;;;;;;;;;;5009628;28;20093;-75
2021/05/05 11:41:10;;;;;;;2.08;1.67;;;;;;;;;;5041799;28;20026;-76
2021/05/05 11:43:37;;;;;;;2.05;1.70;;;;;;;;;;5009452;28;20064;-75
2021/05/05 11:46:03;;;;;;;2.10;1.75;;;;;;;;;;5041565;28;20076;-76
2021/05/05 11:48:30;;;;;;;1.80;1.60;;;;;;;;;;5007156;28;20032;-76
2021/05/05 11:50:56;;;;;;;1.48;1.38;;;;;;;;;;5009215;28;20026;-76
2021/05/05 11:53:28;;;;;;;1.30;1.20;;;;;;;;;;5009624;28;20026;-74
2021/05/05 11:55:53;;;;;;;1.33;1.23;;;;;;;;;;5009097;28;20036;-74
2021/05/05 11:58:21;;;;;;;1.15;1.10;;;;;;;;;;5011349;28;20029;-74
2021/05/05 12:00:46;;;;;;;1.10;1.00;;;;;;;;;;5043169;28;20104;-75
2021/05/05 12:03:12;;;;;;;1.00;0.90;;;;;;;;;;5015205;28;20021;-74
2021/05/05 12:05:38;;;;;;;0.70;0.70;;;;;;;;;;5010871;28;20464;-74
2021/05/05 12:08:06;;;;;;;1.20;1.10;;;;;;;;;;5009228;28;20343;-74
2021/05/05 12:10:37;;;;;;;2.80;1.13;;;;;;;;;;5008248;28;20141;-74
2021/05/05 12:13:03;;;;;;;1.65;1.20;;;;;;;;;;5010254;28;20161;-74
2021/05/05 12:15:28;;;;;;;1.33;1.10;;;;;;;;;;5008757;28;20046;-74
2021/05/05 12:18:02;;;;;;;1.70;1.00;;;;;;;;;;5009734;28;20064;-75
2021/05/05 12:20:28;;;;;;;1.63;1.10;;;;;;;;;;5010131;28;20036;-75
2021/05/05 12:22:55;;;;;;;1.60;1.08;;;;;;;;;;5009166;28;20068;-74
2021/05/05 12:25:22;;;;;;;2.50;1.27;;;;;;;;;;5009738;28;20022;-75
2021/05/05 12:28:05;;;;;;;1.75;1.15;;;;;;;;;;5018991;28;20052;-75
2021/05/05 12:30:46;;;;;;;1.40;1.17;;;;;;;;;;5013918;28;20030;-75
2021/05/05 12:33:13;;;;;;;1.48;1.02;;;;;;;;;;5009268;28;20101;-75
2021/05/05 12:35:38;;;;;;;1.55;1.13;;;;;;;;;;5008939;28;20739;-75
2021/05/05 12:38:05;;;;;;;1.23;1.10;;;;;;;;;;4993343;28;20033;-75
2021/05/05 12:40:30;;;;;;;3.42;1.38;;;;;;;;;;5008403;28;20022;-75
2021/05/05 12:43:08;;;;;;;1.10;1.00;;;;;;;;;;5008014;28;20076;-75
2021/05/05 12:45:37;;;;;;;1.42;1.10;;;;;;;;;;5004712;28;20477;-74
2021/05/05 12:48:02;;;;;;;1.20;1.10;;;;;;;;;;5008747;28;20072;-74
2021/05/05 12:50:35;;;;;;;1.65;1.38;;;;;;;;;;5008513;28;20049;-74
2021/05/05 12:53:03;;;;;;;1.98;1.13;;;;;;;;;;5008467;28;20462;-75
2021/05/05 12:55:31;;;;;;;2.17;1.20;;;;;;;;;;5007243;28;20152;-75
2021/05/05 12:57:57;;;;;;;1.25;1.08;;;;;;;;;;5007663;28;20530;-74
2021/05/05 13:00:23;;;;;;;1.10;1.00;;;;;;;;;;5007719;28;20125;-74
2021/05/05 13:02:58;;;;;;;1.63;1.40;;;;;;;;;;5007398;28;20105;-75
2021/05/05 13:05:23;;;;;;;1.10;1.00;;;;;;;;;;5009063;28;20064;-74
2021/05/05 13:07:48;;;;;;;0.90;0.90;;;;;;;;;;5007163;28;20021;-74
2021/05/05 13:10:23;;;;;;;1.13;1.00;;;;;;;;;;4998495;28;20559;-74
2021/05/05 13:13:05;;;;;;;1.25;1.10;;;;;;;;;;5034389;28;20452;-74
2021/05/05 13:32:29;;;;;;;1.45;1.35;;;;;;;;;;5010438;28;20058;-75
2021/05/05 13:34:54;;;;;;;0.70;0.70;;;;;;;;;;5010333;28;20038;-75
2021/05/05 13:37:19;;;;;;;0.90;0.90;;;;;;;;;;5007995;28;20013;-75
2021/05/05 13:39:45;;;;;;;1.10;1.10;;;;;;;;;;5010156;28;20022;-76
2021/05/05 13:42:13;;;;;;;1.25;1.10;;;;;;;;;;5026518;28;20173;-74
2021/05/05 13:44:46;;;;;;;1.65;1.17;;;;;;;;;;5027303;28;20014;-76
2021/05/05 13:47:48;;;;;;;1.30;1.13;;;;;;;;;;5023430;28;20045;-76
2021/05/05 13:50:03;;;;;;;1.75;1.02;;;;;;;;;;5014999;28;20399;-76
2021/05/05 13:52:29;;;;;;;0.80;0.80;;;;;;;;;;5018584;28;20040;-76
2021/05/05 13:54:55;;;;;;;0.88;0.80;;;;;;;;;;5011481;28;20022;-77
2021/05/05 13:57:20;;;;;;;1.40;0.88;;;;;;;;;;5015776;28;20026;-77
2021/05/05 13:59:46;;;;;;;1.30;0.93;;;;;;;;;;5015816;28;20068;-76
2021/05/05 14:02:11;;;;;;;1.30;1.20;;;;;;;;;;5023035;28;20021;-77
2021/05/05 14:04:37;;;;;;;1.20;1.10;;;;;;;;;;5015980;28;20032;-78
2021/05/05 14:07:04;;;;;;;1.23;1.13;;;;;;;;;;5001186;28;20176;-77
2021/05/05 14:09:29;;;;;;;0.80;0.80;;;;;;;;;;4999960;28;20022;-76
2021/05/05 14:11:55;;;;;;;1.35;1.00;;;;;;;;;;5004434;28;20419;-77
2021/05/05 14:14:20;;;;;;;0.90;0.90;;;;;;;;;;5000571;28;20050;-76
2021/05/05 14:16:46;;;;;;;0.70;0.70;;;;;;;;;;5014051;28;20491;-76
2021/05/05 14:19:12;;;;;;;1.10;1.00;;;;;;;;;;5005904;28;20037;-80
2021/05/05 14:21:39;;;;;;;1.00;1.00;;;;;;;;;;5012204;28;20029;-75
2021/05/05 14:24:08;;;;;;;1.02;0.93;;;;;;;;;;5007284;28;20018;-74
2021/05/05 14:26:34;;;;;;;1.50;1.17;;;;;;;;;;5015431;28;20029;-76
2021/05/05 14:28:59;;;;;;;1.30;1.20;;;;;;;;;;5027374;28;20069;-77
2021/05/05 14:31:24;;;;;;;1.20;1.20;;;;;;;;;;5010470;28;20026;-77
2021/05/05 14:33:49;;;;;;;0.95;0.95;;;;;;;;;;5008561;28;20391;-76
2021/05/05 14:36:15;;;;;;;1.17;1.08;;;;;;;;;;5010934;28;20045;-77
2021/05/05 14:38:44;;;;;;;1.30;1.17;;;;;;;;;;5004168;28;20392;-77
2021/05/05 14:41:18;;;;;;;0.90;0.90;;;;;;;;;;5006278;28;20034;-76
2021/05/05 14:43:57;;;;;;;1.05;0.90;;;;;;;;;;5010532;28;20030;-77
2021/05/05 14:48:49;;;;;;;0.77;0.77;;;;;;;;;;5007571;28;20042;-77
2021/05/05 14:51:14;;;;;;;1.10;1.00;;;;;;;;;;5008914;28;20037;-77
2021/05/05 14:53:40;;;;;;;0.80;0.80;;;;;;;;;;5011058;28;20022;-77
2021/05/05 14:56:05;;;;;;;1.20;1.00;;;;;;;;;;5012363;28;20030;-78
2021/05/05 14:58:38;;;;;;;1.05;0.85;;;;;;;;;;5011632;28;20112;-77
2021/05/05 15:01:03;;;;;;;1.63;1.00;;;;;;;;;;5012334;28;20025;-76
2021/05/05 15:03:31;;;;;;;1.40;1.10;;;;;;;;;;5011818;28;20014;-76
2021/05/05 15:05:58;;;;;;;0.80;0.80;;;;;;;;;;5011414;28;20432;-77
2021/05/05 15:08:29;;;;;;;0.70;0.70;;;;;;;;;;5008813;28;20108;-78
2021/05/05 15:35:28;;;;;;;2.05;0.90;;;;;;;;;;5004906;28;20073;-77
2021/05/05 15:38:12;;;;;;;2.13;1.10;;;;;;;;;;4993272;28;20018;-77
2021/05/05 15:41:24;;;;;;;1.33;0.98;;;;;;;;;;5005273;28;20041;-77